LFBC

Cazaux (BA 120) Air Base

Airport
ICAO code
LFBC
Summary
ICAO Region
EUR
ICAO Territory
Location

, Aquitaine

Serving
Cazaux
Elevation
84 ft
Coordinates
44° 31' 60" N , 1° 7' 30" W
Metar
Observation
LFBC 092000Z AUTO 02008KT CAVOK 02/01 Q1004
Station
Cazaux
Date/Time
2022-12-09 20:00:00
Wind direction
20°
Wind speed
08 kts
Lowest cloud amount
clouds and visibility OK
Temperature
2°C
Dew point
1°C
Humidity
93%
QNH
1004 hPa
Weather condition
n/a

Runways

Designator Length Width Surface Rops
6/24 2408 45 ASP No/No

Airport map

Aerial View

SKYbrary Partners:

Safety knowledge contributed by: